sensor_id;sensor_type;location;lat;lon;timestamp;P1;durP1;ratioP1;P2;durP2;ratioP2
43646;SDS011;56152;49.996;18.980;2023-07-29T00:01:04;7.97;;;5.80;;
43646;SDS011;56152;49.996;18.980;2023-07-29T00:06:08;10.18;;;5.93;;
43646;SDS011;56152;49.996;18.980;2023-07-29T00:11:13;9.43;;;6.35;;
43646;SDS011;56152;49.996;18.980;2023-07-29T00:16:16;11.88;;;6.32;;
43646;SDS011;56152;49.996;18.980;2023-07-29T00:21:21;8.68;;;5.93;;
43646;SDS011;56152;49.996;18.980;2023-07-29T00:26:23;9.68;;;5.15;;
43646;SDS011;56152;49.996;18.980;2023-07-29T00:31:27;9.65;;;5.80;;
43646;SDS011;56152;49.996;18.980;2023-07-29T00:36:29;8.40;;;4.68;;
43646;SDS011;56152;49.996;18.980;2023-07-29T00:41:31;10.07;;;4.75;;
43646;SDS011;56152;49.996;18.980;2023-07-29T00:46:37;14.88;;;5.97;;
43646;SDS011;56152;49.996;18.980;2023-07-29T00:51:41;9.77;;;5.32;;
43646;SDS011;56152;49.996;18.980;2023-07-29T00:56:43;13.95;;;5.38;;
43646;SDS011;56152;49.996;18.980;2023-07-29T01:01:47;10.60;;;6.28;;
43646;SDS011;56152;49.996;18.980;2023-07-29T01:06:50;8.43;;;6.40;;
43646;SDS011;56152;49.996;18.980;2023-07-29T01:11:58;8.55;;;6.70;;
43646;SDS011;56152;49.996;18.980;2023-07-29T01:17:15;11.20;;;6.28;;
43646;SDS011;56152;49.996;18.980;2023-07-29T01:22:23;7.68;;;6.10;;
43646;SDS011;56152;49.996;18.980;2023-07-29T01:27:27;11.27;;;6.50;;
43646;SDS011;56152;49.996;18.980;2023-07-29T01:32:30;9.43;;;6.30;;
43646;SDS011;56152;49.996;18.980;2023-07-29T01:37:37;12.13;;;6.30;;
43646;SDS011;56152;49.996;18.980;2023-07-29T01:42:42;12.60;;;5.72;;
43646;SDS011;56152;49.996;18.980;2023-07-29T01:47:46;11.18;;;5.80;;
43646;SDS011;56152;49.996;18.980;2023-07-29T01:52:48;10.15;;;6.13;;
43646;SDS011;56152;49.996;18.980;2023-07-29T01:57:52;11.85;;;5.47;;
43646;SDS011;56152;49.996;18.980;2023-07-29T02:02:54;7.95;;;6.05;;
43646;SDS011;56152;49.996;18.980;2023-07-29T02:07:56;11.02;;;5.75;;
43646;SDS011;56152;49.996;18.980;2023-07-29T02:12:59;6.82;;;5.35;;
43646;SDS011;56152;49.996;18.980;2023-07-29T02:18:01;10.32;;;5.40;;
43646;SDS011;56152;49.996;18.980;2023-07-29T02:23:04;8.57;;;5.90;;
43646;SDS011;56152;49.996;18.980;2023-07-29T02:28:10;6.15;;;4.60;;
43646;SDS011;56152;49.996;18.980;2023-07-29T02:33:14;8.95;;;6.28;;
43646;SDS011;56152;49.996;18.980;2023-07-29T02:38:16;8.45;;;5.43;;
43646;SDS011;56152;49.996;18.980;2023-07-29T02:43:19;9.95;;;5.70;;
43646;SDS011;56152;49.996;18.980;2023-07-29T02:48:21;7.63;;;5.18;;
43646;SDS011;56152;49.996;18.980;2023-07-29T02:53:22;8.98;;;6.25;;
43646;SDS011;56152;49.996;18.980;2023-07-29T02:58:26;8.57;;;5.28;;
43646;SDS011;56152;49.996;18.980;2023-07-29T03:03:28;10.65;;;5.15;;
43646;SDS011;56152;49.996;18.980;2023-07-29T03:08:30;8.05;;;5.03;;
43646;SDS011;56152;49.996;18.980;2023-07-29T03:13:33;7.35;;;4.97;;
43646;SDS011;56152;49.996;18.980;2023-07-29T03:18:35;6.65;;;4.78;;
43646;SDS011;56152;49.996;18.980;2023-07-29T03:23:37;6.55;;;5.10;;
43646;SDS011;56152;49.996;18.980;2023-07-29T03:28:41;7.95;;;4.65;;
43646;SDS011;56152;49.996;18.980;2023-07-29T03:33:44;9.23;;;4.60;;
43646;SDS011;56152;49.996;18.980;2023-07-29T03:38:46;9.73;;;4.72;;
43646;SDS011;56152;49.996;18.980;2023-07-29T03:43:49;6.38;;;4.22;;
43646;SDS011;56152;49.996;18.980;2023-07-29T03:48:51;7.95;;;4.70;;
43646;SDS011;56152;49.996;18.980;2023-07-29T03:53:53;8.63;;;5.40;;
43646;SDS011;56152;49.996;18.980;2023-07-29T03:59:03;6.65;;;5.15;;
43646;SDS011;56152;49.996;18.980;2023-07-29T04:04:05;10.05;;;6.43;;
43646;SDS011;56152;49.996;18.980;2023-07-29T04:09:07;9.57;;;6.88;;
43646;SDS011;56152;49.996;18.980;2023-07-29T04:14:10;10.60;;;5.95;;
43646;SDS011;56152;49.996;18.980;2023-07-29T04:19:15;9.50;;;6.40;;
43646;SDS011;56152;49.996;18.980;2023-07-29T04:24:17;11.05;;;7.68;;
43646;SDS011;56152;49.996;18.980;2023-07-29T04:29:21;13.05;;;7.45;;
43646;SDS011;56152;49.996;18.980;2023-07-29T04:34:24;9.77;;;7.55;;
43646;SDS011;56152;49.996;18.980;2023-07-29T04:39:26;8.65;;;6.75;;
43646;SDS011;56152;49.996;18.980;2023-07-29T04:44:32;10.32;;;6.57;;
43646;SDS011;56152;49.996;18.980;2023-07-29T04:49:34;9.73;;;6.55;;
43646;SDS011;56152;49.996;18.980;2023-07-29T04:54:38;6.95;;;5.55;;
43646;SDS011;56152;49.996;18.980;2023-07-29T04:59:41;9.68;;;5.60;;
43646;SDS011;56152;49.996;18.980;2023-07-29T05:04:48;8.23;;;5.32;;
43646;SDS011;56152;49.996;18.980;2023-07-29T05:09:50;7.60;;;5.18;;
43646;SDS011;56152;49.996;18.980;2023-07-29T05:14:53;9.13;;;5.35;;
43646;SDS011;56152;49.996;18.980;2023-07-29T05:19:55;7.60;;;4.25;;
43646;SDS011;56152;49.996;18.980;2023-07-29T05:25:01;10.52;;;3.95;;
43646;SDS011;56152;49.996;18.980;2023-07-29T05:30:04;4.85;;;3.85;;
43646;SDS011;56152;49.996;18.980;2023-07-29T05:35:09;9.10;;;3.90;;
43646;SDS011;56152;49.996;18.980;2023-07-29T05:40:11;6.65;;;3.58;;
43646;SDS011;56152;49.996;18.980;2023-07-29T05:45:18;7.00;;;3.00;;
43646;SDS011;56152;49.996;18.980;2023-07-29T05:50:20;5.35;;;2.40;;
43646;SDS011;56152;49.996;18.980;2023-07-29T05:55:22;5.53;;;2.92;;
43646;SDS011;56152;49.996;18.980;2023-07-29T06:00:28;5.40;;;2.72;;
43646;SDS011;56152;49.996;18.980;2023-07-29T06:05:30;3.63;;;2.60;;
43646;SDS011;56152;49.996;18.980;2023-07-29T06:10:32;3.20;;;2.40;;
43646;SDS011;56152;49.996;18.980;2023-07-29T06:15:35;6.15;;;2.80;;
43646;SDS011;56152;49.996;18.980;2023-07-29T06:20:37;7.53;;;2.80;;
43646;SDS011;56152;49.996;18.980;2023-07-29T06:25:39;3.80;;;2.28;;
43646;SDS011;56152;49.996;18.980;2023-07-29T06:30:43;3.40;;;2.70;;
43646;SDS011;56152;49.996;18.980;2023-07-29T06:35:45;3.35;;;2.60;;
43646;SDS011;56152;49.996;18.980;2023-07-29T06:40:46;5.95;;;2.78;;
43646;SDS011;56152;49.996;18.980;2023-07-29T06:45:50;8.82;;;2.72;;
43646;SDS011;56152;49.996;18.980;2023-07-29T06:50:52;6.47;;;2.95;;
43646;SDS011;56152;49.996;18.980;2023-07-29T06:55:55;4.05;;;2.47;;
43646;SDS011;56152;49.996;18.980;2023-07-29T07:01:00;6.93;;;3.13;;
43646;SDS011;56152;49.996;18.980;2023-07-29T07:06:07;4.05;;;2.45;;
43646;SDS011;56152;49.996;18.980;2023-07-29T07:11:09;4.32;;;2.40;;
43646;SDS011;56152;49.996;18.980;2023-07-29T07:16:15;3.85;;;2.47;;
43646;SDS011;56152;49.996;18.980;2023-07-29T07:21:17;4.30;;;2.50;;
43646;SDS011;56152;49.996;18.980;2023-07-29T07:26:19;4.85;;;2.70;;
43646;SDS011;56152;49.996;18.980;2023-07-29T07:31:22;6.32;;;2.78;;
43646;SDS011;56152;49.996;18.980;2023-07-29T07:36:24;4.53;;;2.30;;
43646;SDS011;56152;49.996;18.980;2023-07-29T07:41:26;8.95;;;2.30;;
43646;SDS011;56152;49.996;18.980;2023-07-29T07:46:30;2.75;;;2.10;;
43646;SDS011;56152;49.996;18.980;2023-07-29T07:51:32;2.95;;;2.00;;
43646;SDS011;56152;49.996;18.980;2023-07-29T07:56:36;1.95;;;1.80;;
43646;SDS011;56152;49.996;18.980;2023-07-29T08:01:39;2.53;;;2.13;;
43646;SDS011;56152;49.996;18.980;2023-07-29T08:06:44;4.75;;;2.42;;
43646;SDS011;56152;49.996;18.980;2023-07-29T08:11:46;3.30;;;2.30;;
43646;SDS011;56152;49.996;18.980;2023-07-29T08:16:49;4.28;;;1.83;;
43646;SDS011;56152;49.996;18.980;2023-07-29T08:21:52;3.35;;;1.92;;
43646;SDS011;56152;49.996;18.980;2023-07-29T08:26:54;3.92;;;2.30;;
43646;SDS011;56152;49.996;18.980;2023-07-29T08:31:57;3.13;;;2.15;;
43646;SDS011;56152;49.996;18.980;2023-07-29T08:36:59;3.35;;;2.20;;
43646;SDS011;56152;49.996;18.980;2023-07-29T08:42:01;2.47;;;1.80;;
43646;SDS011;56152;49.996;18.980;2023-07-29T08:47:10;2.10;;;1.75;;
43646;SDS011;56152;49.996;18.980;2023-07-29T08:52:13;1.50;;;1.40;;
43646;SDS011;56152;49.996;18.980;2023-07-29T08:57:16;4.20;;;1.80;;
43646;SDS011;56152;49.996;18.980;2023-07-29T09:02:22;1.73;;;1.55;;
43646;SDS011;56152;49.996;18.980;2023-07-29T09:07:27;5.65;;;1.90;;
43646;SDS011;56152;49.996;18.980;2023-07-29T09:12:33;2.15;;;1.95;;
43646;SDS011;56152;49.996;18.980;2023-07-29T09:17:37;5.47;;;2.45;;
43646;SDS011;56152;49.996;18.980;2023-07-29T09:22:41;2.97;;;2.47;;
43646;SDS011;56152;49.996;18.980;2023-07-29T09:27:46;2.95;;;1.90;;
43646;SDS011;56152;49.996;18.980;2023-07-29T09:32:54;4.45;;;2.28;;
43646;SDS011;56152;49.996;18.980;2023-07-29T09:37:57;4.75;;;2.20;;
43646;SDS011;56152;49.996;18.980;2023-07-29T09:42:59;4.50;;;2.08;;
43646;SDS011;56152;49.996;18.980;2023-07-29T09:48:03;4.47;;;2.30;;
43646;SDS011;56152;49.996;18.980;2023-07-29T09:53:09;3.80;;;1.73;;
43646;SDS011;56152;49.996;18.980;2023-07-29T09:58:12;5.57;;;1.88;;
43646;SDS011;56152;49.996;18.980;2023-07-29T10:03:22;1.88;;;1.70;;
43646;SDS011;56152;49.996;18.980;2023-07-29T10:13:41;1.92;;;1.80;;
43646;SDS011;56152;49.996;18.980;2023-07-29T10:18:45;3.13;;;1.85;;
43646;SDS011;56152;49.996;18.980;2023-07-29T10:24:09;1.95;;;1.65;;
43646;SDS011;56152;49.996;18.980;2023-07-29T10:29:43;5.03;;;1.65;;
43646;SDS011;56152;49.996;18.980;2023-07-29T10:40:11;2.22;;;1.85;;
43646;SDS011;56152;49.996;18.980;2023-07-29T10:45:17;3.30;;;2.10;;
43646;SDS011;56152;49.996;18.980;2023-07-29T10:50:23;2.42;;;1.90;;
43646;SDS011;56152;49.996;18.980;2023-07-29T10:55:31;2.83;;;2.03;;
43646;SDS011;56152;49.996;18.980;2023-07-29T11:00:36;3.40;;;1.88;;
43646;SDS011;56152;49.996;18.980;2023-07-29T11:05:45;7.78;;;2.40;;
43646;SDS011;56152;49.996;18.980;2023-07-29T11:10:59;4.68;;;2.00;;
43646;SDS011;56152;49.996;18.980;2023-07-29T11:16:16;3.58;;;1.90;;
43646;SDS011;56152;49.996;18.980;2023-07-29T11:21:36;1.80;;;1.70;;
43646;SDS011;56152;49.996;18.980;2023-07-29T11:26:46;2.97;;;1.63;;
43646;SDS011;56152;49.996;18.980;2023-07-29T11:31:58;3.60;;;1.73;;
43646;SDS011;56152;49.996;18.980;2023-07-29T11:37:04;2.55;;;1.70;;
43646;SDS011;56152;49.996;18.980;2023-07-29T11:42:31;2.25;;;1.98;;
43646;SDS011;56152;49.996;18.980;2023-07-29T11:47:34;2.30;;;2.10;;
43646;SDS011;56152;49.996;18.980;2023-07-29T11:52:41;3.25;;;1.90;;
43646;SDS011;56152;49.996;18.980;2023-07-29T11:58:03;2.78;;;1.88;;
43646;SDS011;56152;49.996;18.980;2023-07-29T12:03:36;5.25;;;1.85;;
43646;SDS011;56152;49.996;18.980;2023-07-29T12:08:41;2.42;;;2.08;;
43646;SDS011;56152;49.996;18.980;2023-07-29T12:14:03;3.08;;;1.73;;
43646;SDS011;56152;49.996;18.980;2023-07-29T12:19:14;1.60;;;1.47;;
43646;SDS011;56152;49.996;18.980;2023-07-29T12:24:19;2.28;;;1.70;;
43646;SDS011;56152;49.996;18.980;2023-07-29T12:29:24;5.32;;;1.90;;
43646;SDS011;56152;49.996;18.980;2023-07-29T12:34:27;2.60;;;1.63;;
43646;SDS011;56152;49.996;18.980;2023-07-29T12:39:32;1.98;;;1.40;;
43646;SDS011;56152;49.996;18.980;2023-07-29T12:44:36;2.10;;;1.80;;
43646;SDS011;56152;49.996;18.980;2023-07-29T12:49:42;6.85;;;1.90;;
43646;SDS011;56152;49.996;18.980;2023-07-29T12:54:47;1.90;;;1.70;;
43646;SDS011;56152;49.996;18.980;2023-07-29T12:59:49;1.60;;;1.50;;
43646;SDS011;56152;49.996;18.980;2023-07-29T13:04:51;1.90;;;1.70;;
43646;SDS011;56152;49.996;18.980;2023-07-29T13:09:55;1.90;;;1.70;;
43646;SDS011;56152;49.996;18.980;2023-07-29T13:14:57;3.45;;;1.70;;
43646;SDS011;56152;49.996;18.980;2023-07-29T13:19:59;1.77;;;1.65;;
43646;SDS011;56152;49.996;18.980;2023-07-29T13:25:04;4.32;;;1.60;;
43646;SDS011;56152;49.996;18.980;2023-07-29T13:30:08;2.58;;;1.90;;
43646;SDS011;56152;49.996;18.980;2023-07-29T13:35:17;3.50;;;2.00;;
43646;SDS011;56152;49.996;18.980;2023-07-29T13:40:35;3.88;;;1.70;;
43646;SDS011;56152;49.996;18.980;2023-07-29T13:45:37;2.75;;;2.10;;
43646;SDS011;56152;49.996;18.980;2023-07-29T13:50:39;2.92;;;2.10;;
43646;SDS011;56152;49.996;18.980;2023-07-29T13:55:42;5.35;;;2.15;;
43646;SDS011;56152;49.996;18.980;2023-07-29T14:00:47;2.92;;;1.98;;
43646;SDS011;56152;49.996;18.980;2023-07-29T14:05:52;3.83;;;2.10;;
43646;SDS011;56152;49.996;18.980;2023-07-29T14:11:00;6.43;;;2.08;;
43646;SDS011;56152;49.996;18.980;2023-07-29T14:16:06;2.70;;;1.73;;
43646;SDS011;56152;49.996;18.980;2023-07-29T14:21:08;3.53;;;1.83;;
43646;SDS011;56152;49.996;18.980;2023-07-29T14:26:12;1.83;;;1.60;;
43646;SDS011;56152;49.996;18.980;2023-07-29T14:31:14;2.08;;;1.70;;
43646;SDS011;56152;49.996;18.980;2023-07-29T14:36:17;2.80;;;1.65;;
43646;SDS011;56152;49.996;18.980;2023-07-29T14:41:21;2.90;;;2.20;;
43646;SDS011;56152;49.996;18.980;2023-07-29T14:46:29;1.58;;;1.48;;
43646;SDS011;56152;49.996;18.980;2023-07-29T14:51:32;2.55;;;1.83;;
43646;SDS011;56152;49.996;18.980;2023-07-29T14:56:36;2.40;;;1.70;;
43646;SDS011;56152;49.996;18.980;2023-07-29T15:01:39;2.25;;;2.03;;
43646;SDS011;56152;49.996;18.980;2023-07-29T15:06:54;3.05;;;2.33;;
43646;SDS011;56152;49.996;18.980;2023-07-29T15:12:08;3.78;;;1.98;;
43646;SDS011;56152;49.996;18.980;2023-07-29T15:17:10;1.98;;;1.80;;
43646;SDS011;56152;49.996;18.980;2023-07-29T15:22:14;2.85;;;2.17;;
43646;SDS011;56152;49.996;18.980;2023-07-29T15:27:20;2.97;;;2.10;;
43646;SDS011;56152;49.996;18.980;2023-07-29T15:32:22;2.72;;;2.05;;
43646;SDS011;56152;49.996;18.980;2023-07-29T15:37:24;3.17;;;1.80;;
43646;SDS011;56152;49.996;18.980;2023-07-29T15:42:29;3.28;;;1.98;;
43646;SDS011;56152;49.996;18.980;2023-07-29T15:47:31;2.92;;;1.88;;
43646;SDS011;56152;49.996;18.980;2023-07-29T15:52:33;6.22;;;2.28;;
43646;SDS011;56152;49.996;18.980;2023-07-29T15:57:37;5.22;;;3.08;;
43646;SDS011;56152;49.996;18.980;2023-07-29T16:02:39;2.90;;;2.15;;
43646;SDS011;56152;49.996;18.980;2023-07-29T16:07:41;1.90;;;1.67;;
43646;SDS011;56152;49.996;18.980;2023-07-29T16:12:44;2.30;;;1.83;;
43646;SDS011;56152;49.996;18.980;2023-07-29T16:17:48;4.07;;;2.30;;
43646;SDS011;56152;49.996;18.980;2023-07-29T16:22:54;5.28;;;2.55;;
43646;SDS011;56152;49.996;18.980;2023-07-29T16:27:57;4.20;;;2.85;;
43646;SDS011;56152;49.996;18.980;2023-07-29T16:32:59;3.15;;;2.22;;
43646;SDS011;56152;49.996;18.980;2023-07-29T16:38:04;3.63;;;2.10;;
43646;SDS011;56152;49.996;18.980;2023-07-29T16:43:10;4.22;;;2.30;;
43646;SDS011;56152;49.996;18.980;2023-07-29T16:48:14;2.55;;;2.03;;
43646;SDS011;56152;49.996;18.980;2023-07-29T16:53:17;5.78;;;2.22;;
43646;SDS011;56152;49.996;18.980;2023-07-29T16:58:21;2.20;;;1.45;;
43646;SDS011;56152;49.996;18.980;2023-07-29T17:03:25;4.93;;;1.83;;
43646;SDS011;56152;49.996;18.980;2023-07-29T17:08:28;2.38;;;1.50;;
43646;SDS011;56152;49.996;18.980;2023-07-29T17:13:33;3.15;;;1.58;;
43646;SDS011;56152;49.996;18.980;2023-07-29T17:18:37;6.10;;;2.25;;
43646;SDS011;56152;49.996;18.980;2023-07-29T17:23:39;4.97;;;1.45;;
43646;SDS011;56152;49.996;18.980;2023-07-29T17:28:43;1.75;;;1.00;;
43646;SDS011;56152;49.996;18.980;2023-07-29T17:33:46;3.63;;;1.67;;
43646;SDS011;56152;49.996;18.980;2023-07-29T17:38:52;4.20;;;1.60;;
43646;SDS011;56152;49.996;18.980;2023-07-29T17:43:55;2.40;;;1.90;;
43646;SDS011;56152;49.996;18.980;2023-07-29T17:48:59;3.95;;;1.90;;
43646;SDS011;56152;49.996;18.980;2023-07-29T17:54:05;6.47;;;2.00;;
43646;SDS011;56152;49.996;18.980;2023-07-29T17:59:13;3.65;;;1.75;;
43646;SDS011;56152;49.996;18.980;2023-07-29T18:04:15;3.95;;;1.73;;
43646;SDS011;56152;49.996;18.980;2023-07-29T18:09:20;4.00;;;1.40;;
43646;SDS011;56152;49.996;18.980;2023-07-29T18:14:24;3.17;;;1.70;;
43646;SDS011;56152;49.996;18.980;2023-07-29T18:19:29;2.60;;;1.52;;
43646;SDS011;56152;49.996;18.980;2023-07-29T18:24:33;2.95;;;1.80;;
43646;SDS011;56152;49.996;18.980;2023-07-29T18:29:37;2.58;;;1.52;;
43646;SDS011;56152;49.996;18.980;2023-07-29T18:34:40;5.80;;;1.92;;
43646;SDS011;56152;49.996;18.980;2023-07-29T18:39:42;2.85;;;1.90;;
43646;SDS011;56152;49.996;18.980;2023-07-29T18:44:52;4.10;;;2.33;;
43646;SDS011;56152;49.996;18.980;2023-07-29T18:49:54;5.18;;;2.38;;
43646;SDS011;56152;49.996;18.980;2023-07-29T18:54:58;3.28;;;2.20;;
43646;SDS011;56152;49.996;18.980;2023-07-29T19:00:04;4.90;;;2.20;;
43646;SDS011;56152;49.996;18.980;2023-07-29T19:05:07;6.22;;;2.50;;
43646;SDS011;56152;49.996;18.980;2023-07-29T19:10:11;3.55;;;2.20;;
43646;SDS011;56152;49.996;18.980;2023-07-29T19:15:15;10.68;;;2.92;;
43646;SDS011;56152;49.996;18.980;2023-07-29T19:20:20;4.10;;;2.65;;
43646;SDS011;56152;49.996;18.980;2023-07-29T19:25:26;6.07;;;2.93;;
43646;SDS011;56152;49.996;18.980;2023-07-29T19:30:41;4.28;;;3.00;;
43646;SDS011;56152;49.996;18.980;2023-07-29T19:35:43;4.28;;;2.40;;
43646;SDS011;56152;49.996;18.980;2023-07-29T19:40:48;4.05;;;2.35;;
43646;SDS011;56152;49.996;18.980;2023-07-29T19:45:52;4.65;;;2.20;;
43646;SDS011;56152;49.996;18.980;2023-07-29T19:50:57;3.63;;;2.33;;
43646;SDS011;56152;49.996;18.980;2023-07-29T19:56:00;7.97;;;2.92;;
43646;SDS011;56152;49.996;18.980;2023-07-29T20:01:04;4.72;;;2.20;;
43646;SDS011;56152;49.996;18.980;2023-07-29T20:06:10;4.95;;;2.67;;
43646;SDS011;56152;49.996;18.980;2023-07-29T20:11:17;6.30;;;2.20;;
43646;SDS011;56152;49.996;18.980;2023-07-29T20:16:21;2.90;;;2.20;;
43646;SDS011;56152;49.996;18.980;2023-07-29T20:21:26;3.20;;;2.28;;
43646;SDS011;56152;49.996;18.980;2023-07-29T20:26:41;5.35;;;2.10;;
43646;SDS011;56152;49.996;18.980;2023-07-29T20:37:48;3.15;;;2.05;;
43646;SDS011;56152;49.996;18.980;2023-07-29T20:42:50;3.90;;;2.10;;
43646;SDS011;56152;49.996;18.980;2023-07-29T20:47:58;5.07;;;1.83;;
43646;SDS011;56152;49.996;18.980;2023-07-29T20:53:00;2.42;;;2.00;;
43646;SDS011;56152;49.996;18.980;2023-07-29T20:58:03;2.60;;;2.03;;
43646;SDS011;56152;49.996;18.980;2023-07-29T21:03:08;4.22;;;2.40;;
43646;SDS011;56152;49.996;18.980;2023-07-29T21:08:10;2.60;;;1.98;;
43646;SDS011;56152;49.996;18.980;2023-07-29T21:13:17;2.85;;;1.95;;
43646;SDS011;56152;49.996;18.980;2023-07-29T21:18:22;2.80;;;1.85;;
43646;SDS011;56152;49.996;18.980;2023-07-29T21:23:25;4.90;;;2.00;;
43646;SDS011;56152;49.996;18.980;2023-07-29T21:28:27;5.00;;;2.20;;
43646;SDS011;56152;49.996;18.980;2023-07-29T21:33:31;3.45;;;2.10;;
43646;SDS011;56152;49.996;18.980;2023-07-29T21:38:34;3.47;;;1.90;;
43646;SDS011;56152;49.996;18.980;2023-07-29T21:43:40;4.95;;;2.50;;
43646;SDS011;56152;49.996;18.980;2023-07-29T21:48:45;4.75;;;2.03;;
43646;SDS011;56152;49.996;18.980;2023-07-29T21:53:47;3.83;;;2.30;;
43646;SDS011;56152;49.996;18.980;2023-07-29T21:58:52;6.57;;;2.58;;
43646;SDS011;56152;49.996;18.980;2023-07-29T22:03:57;3.78;;;2.28;;
43646;SDS011;56152;49.996;18.980;2023-07-29T22:08:59;3.13;;;2.40;;
43646;SDS011;56152;49.996;18.980;2023-07-29T22:14:03;3.65;;;2.47;;
43646;SDS011;56152;49.996;18.980;2023-07-29T22:19:08;3.63;;;2.53;;
43646;SDS011;56152;49.996;18.980;2023-07-29T22:24:11;4.60;;;2.30;;
43646;SDS011;56152;49.996;18.980;2023-07-29T22:29:14;3.40;;;2.50;;
43646;SDS011;56152;49.996;18.980;2023-07-29T22:34:18;4.50;;;2.60;;
43646;SDS011;56152;49.996;18.980;2023-07-29T22:39:20;3.88;;;2.58;;
43646;SDS011;56152;49.996;18.980;2023-07-29T22:44:25;4.63;;;2.58;;
43646;SDS011;56152;49.996;18.980;2023-07-29T22:49:29;6.65;;;2.63;;
43646;SDS011;56152;49.996;18.980;2023-07-29T22:54:31;4.70;;;2.40;;
43646;SDS011;56152;49.996;18.980;2023-07-29T22:59:34;4.78;;;2.70;;
43646;SDS011;56152;49.996;18.980;2023-07-29T23:04:39;3.55;;;2.22;;
43646;SDS011;56152;49.996;18.980;2023-07-29T23:09:41;4.43;;;2.10;;
43646;SDS011;56152;49.996;18.980;2023-07-29T23:14:50;7.70;;;3.23;;
43646;SDS011;56152;49.996;18.980;2023-07-29T23:19:54;3.03;;;2.30;;
43646;SDS011;56152;49.996;18.980;2023-07-29T23:24:56;5.07;;;2.25;;
43646;SDS011;56152;49.996;18.980;2023-07-29T23:30:03;3.20;;;2.25;;
43646;SDS011;56152;49.996;18.980;2023-07-29T23:35:10;4.65;;;2.25;;
43646;SDS011;56152;49.996;18.980;2023-07-29T23:40:13;3.80;;;2.50;;
43646;SDS011;56152;49.996;18.980;2023-07-29T23:45:15;7.97;;;2.90;;
43646;SDS011;56152;49.996;18.980;2023-07-29T23:50:22;4.80;;;2.83;;
43646;SDS011;56152;49.996;18.980;2023-07-29T23:55:24;5.68;;;2.58;;
